Terminal Aerodrome Forecast
Issued by NWS Wakefield, VA

Home | Current Version | Previous Version | Text Only | Print | Product List | Glossary On
Versions: 1 2 3 4 5 6 7 8 9 10 11 12
000
FTUS41 KAKQ 201700 RRA
TAFRIC
TAF
KRIC 201743Z 2018/2118 11005KT P6SM SCT040 SCT100
     FM210100 10003KT P6SM FEW060 BKN110
     FM211000 00000KT 5SM BR SCT100 BKN250
     FM211400 03004KT P6SM SCT040=

USA.gov is the U.S. government's official web portal to all federal, state and local government web resources and services.